Miner, Montana
Current Conditions -  °F | °C
As of 1:55 PM on Saturday 25 Oct 2014 (Local Time) from KWYS Reporting Station
Clear Clear  
Wind Chill: 63°   Ceiling: Unl
Heat Index: 63°   Visibility: 10mi
Dew Point: 27°   Wind: 24mph
Humidity: 26%   Direction: 210°SSW
Pressure: 30.03"   Gusts: 33mph
Location:  45.199°N, 110.818°W
Report Text: KWYS 251955Z AUTO 21021G29KT 10SM CLR 17/M03 A3003 RMK AO2
Loading
Personal Weather Stations






























Interactive Weather Map
Tropical Storm Tracking
New forecast layout! Learn more

10-Day Weather Forecast

Advertisements
Track Severe Weather on mobile